Time;durP1;ratioP1;P1;durP2;ratioP2;P2;SDS_P1;SDS_P2;PMS_P1;PMS_P2;Temp;Humidity;BMP_temperature;BMP_pressure;BME280_temperature;BME280_humidity;BME280_pressure;Samples;Min_cycle;Max_cycle;Signal;HPM_P1;HPM_P2
2022/04/29 00:00:48;;;;;;;;;;;;;;;21.28;40.33;102979.94;7284796;19;153791;-59
2022/04/29 00:03:15;;;;;;;;;;;;;;;21.28;40.37;102981.91;7285184;19;151670;-55
2022/04/29 00:05:42;;;;;;;;;;;;;;;21.23;40.05;102985.50;7284898;19;152458;-56
2022/04/29 00:08:10;;;;;;;;;;;;;;;21.22;40.29;102988.56;7283918;19;153331;-55
2022/04/29 00:10:37;;;;;;;;;;;;;;;21.21;40.03;102975.66;7282911;19;151633;-57
2022/04/29 00:13:04;;;;;;;;;;;;;;;21.20;40.04;102976.75;7285656;19;153196;-58
2022/04/29 00:15:31;;;;;;;;;;;;;;;21.17;40.52;102972.50;7286944;19;152539;-56
2022/04/29 00:17:58;;;;;;;;;;;;;;;21.15;40.53;102969.09;7285874;19;152551;-58
2022/04/29 00:20:25;;;;;;;;;;;;;;;21.16;40.48;102969.97;7283577;19;153683;-56
2022/04/29 00:22:51;;;;;;;;;;;;;;;21.14;40.69;102969.38;7284465;19;151602;-58
2022/04/29 00:25:18;;;;;;;;;;;;;;;21.14;40.29;102963.75;7284259;19;152830;-58
2022/04/29 00:27:45;;;;;;;;;;;;;;;21.11;40.58;102969.88;7283427;19;153802;-57
2022/04/29 00:30:12;;;;;;;;;;;;;;;21.09;40.34;102970.13;7283557;19;151714;-56
2022/04/29 00:32:39;;;;;;;;;;;;;;;21.08;40.89;102968.41;7282336;19;153120;-56
2022/04/29 00:35:08;;;;;;;;;;;;;;;21.07;40.66;102969.56;7287981;19;153669;-56
2022/04/29 00:37:54;;;;;;;;;;;;;;;21.07;40.61;102965.88;7283662;19;152633;-57
2022/04/29 00:40:22;;;;;;;;;;;;;;;21.06;40.66;102967.00;7282262;19;153149;-58
2022/04/29 00:42:48;;;;;;;;;;;;;;;21.04;40.65;102963.59;7282352;19;151686;-57
2022/04/29 00:45:16;;;;;;;;;;;;;;;21.03;41.22;102970.34;7283359;19;153360;-55
2022/04/29 00:47:45;;;;;;;;;;;;;;;21.02;41.26;102969.50;7281844;19;153052;-56
2022/04/29 00:50:12;;;;;;;;;;;;;;;21.02;41.14;102971.44;7282641;19;151762;-56
2022/04/29 00:52:41;;;;;;;;;;;;;;;20.98;41.06;102957.06;7284009;19;152718;-58
2022/04/29 00:55:09;;;;;;;;;;;;;;;20.99;41.44;102961.56;7283166;19;153336;-58
2022/04/29 00:57:40;;;;;;;;;;;;;;;20.97;41.33;102955.38;7291684;19;151675;-57
2022/04/29 01:00:08;;;;;;;;;;;;;;;20.96;41.17;102952.81;7279827;19;153237;-57
2022/04/29 01:02:39;;;;;;;;;;;;;;;20.93;41.26;102951.38;7281362;19;151910;-56
2022/04/29 01:05:07;;;;;;;;;;;;;;;20.95;41.52;102953.91;7283566;19;153693;-58
2022/04/29 01:07:35;;;;;;;;;;;;;;;20.92;41.49;102955.31;7281409;19;153223;-56
2022/04/29 01:10:06;;;;;;;;;;;;;;;20.94;41.82;102949.44;7282610;19;151770;-56
2022/04/29 01:12:36;;;;;;;;;;;;;;;20.93;41.53;102945.78;7283580;19;153707;-56
2022/04/29 01:15:04;;;;;;;;;;;;;;;20.90;41.70;102939.81;7280175;19;154337;-56
2022/04/29 01:17:33;;;;;;;;;;;;;;;20.88;41.86;102936.41;7283500;19;152265;-56
2022/04/29 01:20:04;;;;;;;;;;;;;;;20.88;42.04;102936.41;7288914;19;153572;-56
2022/04/29 01:22:31;;;;;;;;;;;;;;;20.85;42.04;102934.97;7281841;19;151800;-59
2022/04/29 01:24:58;;;;;;;;;;;;;;;20.87;41.58;102929.94;7281559;19;153275;-57
2022/04/29 01:27:25;;;;;;;;;;;;;;;20.88;41.97;102928.00;7280329;19;153530;-56
2022/04/29 01:29:57;;;;;;;;;;;;;;;20.89;41.94;102929.69;7279956;19;151830;-56
2022/04/29 01:32:24;;;;;;;;;;;;;;;20.85;41.77;102920.91;7281646;19;153286;-55
2022/04/29 01:34:51;;;;;;;;;;;;;;;20.84;41.59;102924.88;7278791;19;154043;-58
2022/04/29 01:37:18;;;;;;;;;;;;;;;20.81;41.85;102920.59;7281295;19;152225;-55
2022/04/29 01:39:44;;;;;;;;;;;;;;;20.80;41.83;102909.66;7281591;19;153682;-56
2022/04/29 01:42:11;;;;;;;;;;;;;;;20.78;41.95;102918.34;7289200;19;153295;-57
2022/04/29 01:44:38;;;;;;;;;;;;;;;20.76;41.83;102914.06;7282159;19;152652;-56
2022/04/29 01:47:04;;;;;;;;;;;;;;;20.75;41.94;102903.97;7281249;19;154993;-57
2022/04/29 01:49:31;;;;;;;;;;;;;;;20.74;42.05;102905.06;7281330;19;152322;-56
2022/04/29 01:51:59;;;;;;;;;;;;;;;20.72;42.13;102896.91;7277794;19;153526;-57
2022/04/29 01:54:26;;;;;;;;;;;;;;;20.72;41.99;102891.28;7277672;19;153920;-57
2022/04/29 01:56:53;;;;;;;;;;;;;;;20.70;42.47;102893.50;7282778;19;151855;-56
2022/04/29 01:59:20;;;;;;;;;;;;;;;20.69;42.50;102888.16;7281062;19;152629;-56
2022/04/29 02:01:46;;;;;;;;;;;;;;;20.67;42.19;102884.78;7277739;19;153156;-56
2022/04/29 02:04:14;;;;;;;;;;;;;;;20.66;42.58;102889.53;7288692;19;151781;-55
2022/04/29 02:06:41;;;;;;;;;;;;;;;20.67;42.55;102884.78;7279747;19;153344;-57
2022/04/29 02:09:08;;;;;;;;;;;;;;;20.65;42.49;102875.75;7280771;19;152352;-56
2022/04/29 02:11:35;;;;;;;;;;;;;;;20.62;42.91;102882.75;7278400;19;152658;-60
2022/04/29 02:14:01;;;;;;;;;;;;;;;20.64;42.64;102888.09;7285012;19;152255;-57
2022/04/29 02:16:28;;;;;;;;;;;;;;;20.63;42.89;102878.81;7288870;19;151621;-56
2022/04/29 02:18:55;;;;;;;;;;;;;;;20.62;42.86;102867.84;7287951;19;153424;-57
2022/04/29 02:21:25;;;;;;;;;;;;;;;20.64;42.72;102865.63;7286573;19;153871;-55
2022/04/29 02:23:52;;;;;;;;;;;;;;;20.63;42.91;102867.56;7288124;19;151658;-57
2022/04/29 02:26:19;;;;;;;;;;;;;;;20.66;43.24;102864.25;7293144;19;153340;-56
2022/04/29 02:28:45;;;;;;;;;;;;;;;20.62;43.38;102863.09;7286821;19;151874;-55
2022/04/29 02:31:12;;;;;;;;;;;;;;;20.62;43.10;102862.25;7287373;19;153327;-56
2022/04/29 02:33:40;;;;;;;;;;;;;;;20.61;43.53;102864.19;7285610;19;152441;-56
2022/04/29 02:36:09;;;;;;;;;;;;;;;20.60;43.21;102864.44;7287383;19;151777;-56
2022/04/29 02:38:36;;;;;;;;;;;;;;;20.59;43.41;102865.53;7286438;19;153376;-58
2022/04/29 02:41:02;;;;;;;;;;;;;;;20.57;43.19;102871.44;7284014;19;153951;-56
2022/04/29 02:43:29;;;;;;;;;;;;;;;20.56;43.18;102858.50;7287637;19;151994;-55
2022/04/29 02:45:56;;;;;;;;;;;;;;;20.56;43.25;102866.09;7293008;19;152898;-57
2022/04/29 02:48:23;;;;;;;;;;;;;;;20.54;43.43;102869.13;7287654;19;151616;-56
2022/04/29 02:50:49;;;;;;;;;;;;;;;20.57;43.25;102868.63;7285413;19;152991;-57
2022/04/29 02:53:16;;;;;;;;;;;;;;;20.53;43.43;102873.09;7285544;19;154043;-57
2022/04/29 02:55:43;;;;;;;;;;;;;;;20.55;43.17;102864.38;7286427;19;151659;-56
2022/04/29 02:58:09;;;;;;;;;;;;;;;20.55;43.23;102865.22;7286358;19;155232;-58
2022/04/29 03:00:36;;;;;;;;;;;;;;;20.50;43.19;102859.53;7285550;19;155821;-58
2022/04/29 03:03:03;;;;;;;;;;;;;;;20.51;42.84;102866.00;7283332;19;151863;-57
2022/04/29 03:05:30;;;;;;;;;;;;;;;20.50;42.81;102864.31;7286081;19;152776;-57
2022/04/29 03:07:57;;;;;;;;;;;;;;;20.51;42.89;102871.63;7290343;19;154392;-56
2022/04/29 03:10:24;;;;;;;;;;;;;;;20.48;43.11;102858.13;7286249;19;153327;-56
2022/04/29 03:12:50;;;;;;;;;;;;;;;20.48;43.05;102858.97;7283364;19;153511;-57
2022/04/29 03:15:18;;;;;;;;;;;;;;;20.47;43.01;102864.84;7281710;19;151783;-59
2022/04/29 03:20:38;;;;;;;;;;;;;;;20.43;43.09;102867.34;7284496;19;155560;-57
2022/04/29 03:23:06;;;;;;;;;;;;;;;20.42;42.74;102876.84;7285238;19;151907;-58
2022/04/29 03:25:33;;;;;;;;;;;;;;;20.43;42.88;102870.13;7283900;19;153602;-59
2022/04/29 03:28:00;;;;;;;;;;;;;;;20.40;43.01;102871.50;7283454;19;153889;-55
2022/04/29 03:30:26;;;;;;;;;;;;;;;20.40;42.89;102870.63;7292998;19;151902;-55
2022/04/29 03:33:00;;;;;;;;;;;;;;;20.38;43.20;102867.25;7282189;19;154671;-57
2022/04/29 03:35:27;;;;;;;;;;;;;;;20.36;43.16;102878.75;7283451;19;152176;-57
2022/04/29 03:37:54;;;;;;;;;;;;;;;20.35;43.09;102870.59;7285034;19;152422;-56
2022/04/29 03:40:22;;;;;;;;;;;;;;;20.34;42.86;102874.50;7283495;19;152144;-56
2022/04/29 03:42:50;;;;;;;;;;;;;;;20.33;43.00;102878.41;7285059;19;151545;-56
2022/04/29 03:45:17;;;;;;;;;;;;;;;20.32;42.89;102877.56;7283947;19;152682;-57
2022/04/29 03:47:43;;;;;;;;;;;;;;;20.30;43.13;102870.53;7283976;19;152509;-57
2022/04/29 03:50:11;;;;;;;;;;;;;;;20.29;43.05;102871.59;7281944;19;151903;-59
2022/04/29 03:52:44;;;;;;;;;;;;;;;20.27;43.36;102873.81;7290097;19;152914;-56
2022/04/29 03:55:11;;;;;;;;;;;;;;;20.26;43.07;102870.13;7283964;19;151850;-58
2022/04/29 03:57:38;;;;;;;;;;;;;;;20.26;42.87;102872.13;7283306;19;152838;-57
2022/04/29 04:00:05;;;;;;;;;;;;;;;20.25;42.82;102864.81;7283784;19;154317;-55
2022/04/29 04:02:32;;;;;;;;;;;;;;;20.23;43.14;102867.00;7284087;19;151626;-58
2022/04/29 04:04:59;;;;;;;;;;;;;;;20.21;43.02;102861.69;7285441;19;153347;-56
2022/04/29 04:07:25;;;;;;;;;;;;;;;20.21;43.29;102863.63;7284425;19;154227;-56
2022/04/29 04:09:52;;;;;;;;;;;;;;;20.20;42.85;102870.34;7285333;19;152002;-57
2022/04/29 04:12:20;;;;;;;;;;;;;;;20.19;42.78;102863.03;7282228;19;154878;-56
2022/04/29 04:14:47;;;;;;;;;;;;;;;20.16;43.15;102860.75;7289111;19;154122;-56
2022/04/29 04:17:13;;;;;;;;;;;;;;;20.17;42.99;102874.50;7283660;19;153711;-56
2022/04/29 04:19:40;;;;;;;;;;;;;;;20.16;43.21;102872.84;7283451;19;153355;-57
2022/04/29 04:22:08;;;;;;;;;;;;;;;20.16;43.14;102871.97;7282954;19;151931;-57
2022/04/29 04:24:35;;;;;;;;;;;;;;;20.13;43.20;102870.53;7280283;19;152689;-56
2022/04/29 04:27:02;;;;;;;;;;;;;;;20.13;43.22;102870.53;7283615;19;154308;-56
2022/04/29 04:29:32;;;;;;;;;;;;;;;20.14;43.08;102866.63;7280773;19;152275;-57
2022/04/29 04:32:03;;;;;;;;;;;;;;;20.19;43.01;102868.66;7283582;19;153747;-57
2022/04/29 04:37:17;;;;;;;;;;;;;;;20.26;43.86;102861.72;7292547;19;151735;-57
2022/04/29 04:39:44;;;;;;;;;;;;;;;20.30;43.17;102864.91;7282508;19;154524;-56
2022/04/29 04:42:11;;;;;;;;;;;;;;;20.36;43.95;102867.50;7283664;19;151553;-55
2022/04/29 04:44:38;;;;;;;;;;;;;;;20.42;43.73;102871.25;7283494;19;152427;-56
2022/04/29 04:47:08;;;;;;;;;;;;;;;20.49;43.75;102871.88;7283275;19;155724;-55
2022/04/29 04:49:37;;;;;;;;;;;;;;;20.55;43.75;102872.81;7283174;19;151618;-56
2022/04/29 04:52:04;;;;;;;;;;;;;;;20.62;43.83;102877.13;7281987;19;152838;-55
2022/04/29 04:54:31;;;;;;;;;;;;;;;20.70;43.89;102876.66;7279707;19;153980;-56
2022/04/29 04:56:58;;;;;;;;;;;;;;;20.77;43.76;102871.69;7291183;19;151766;-58
2022/04/29 04:59:26;;;;;;;;;;;;;;;20.84;43.62;102871.47;7281702;19;154037;-57
2022/04/29 05:01:56;;;;;;;;;;;;;;;20.92;43.57;102868.19;7284908;19;151555;-57
2022/04/29 05:04:23;;;;;;;;;;;;;;;21.00;43.45;102875.28;7283502;19;152736;-57
2022/04/29 05:06:51;;;;;;;;;;;;;;;21.07;43.04;102871.19;7281192;19;154358;-58
2022/04/29 05:09:18;;;;;;;;;;;;;;;21.13;43.45;102877.72;7280376;19;152313;-58
2022/04/29 05:11:45;;;;;;;;;;;;;;;21.19;42.91;102876.66;7282498;19;151585;-57
2022/04/29 05:14:28;;;;;;;;;;;;;;;21.24;42.96;102883.19;7280161;19;154192;-56
2022/04/29 05:16:55;;;;;;;;;;;;;;;21.32;42.38;102881.00;7282839;19;151837;-56
2022/04/29 05:19:26;;;;;;;;;;;;;;;21.37;42.18;102893.13;7287219;19;151553;-55
2022/04/29 05:21:57;;;;;;;;;;;;;;;21.44;42.42;102896.56;7280770;19;151875;-57
2022/04/29 05:24:24;;;;;;;;;;;;;;;21.49;42.09;102899.44;7282908;19;151919;-58
2022/04/29 05:26:53;;;;;;;;;;;;;;;21.56;42.08;102905.69;7280906;19;156106;-56
2022/04/29 05:29:20;;;;;;;;;;;;;;;21.63;42.04;102908.28;7283102;19;152007;-56
2022/04/29 05:31:47;;;;;;;;;;;;;;;21.68;41.71;102908.31;7282287;19;152633;-58
2022/04/29 05:34:14;;;;;;;;;;;;;;;21.72;41.68;102910.31;7281362;19;153959;-57
2022/04/29 05:36:41;;;;;;;;;;;;;;;21.78;41.60;102904.75;7282983;19;152601;-56
2022/04/29 05:42:18;;;;;;;;;;;;;;;21.87;41.56;102912.41;7287837;19;153245;-60
2022/04/29 05:44:45;;;;;;;;;;;;;;;21.94;41.49;102924.31;7280255;19;154878;-56
2022/04/29 05:47:12;;;;;;;;;;;;;;;21.99;41.36;102918.72;7282124;19;153956;-58
2022/04/29 05:49:39;;;;;;;;;;;;;;;22.04;41.72;102923.53;7288077;19;151594;-57
2022/04/29 05:52:08;;;;;;;;;;;;;;;22.08;41.32;102921.88;7288484;19;153216;-58
2022/04/29 05:54:35;;;;;;;;;;;;;;;22.13;41.04;102921.91;7288015;19;153193;-56
2022/04/29 05:57:09;;;;;;;;;;;;;;;22.17;41.32;102925.88;7289567;19;152035;-57
2022/04/29 05:59:37;;;;;;;;;;;;;;;22.22;41.28;102922.25;7286033;19;154882;-56
2022/04/29 06:02:04;;;;;;;;;;;;;;;22.28;41.54;102930.47;7286356;19;154401;-57
2022/04/29 06:04:31;;;;;;;;;;;;;;;22.32;41.33;102934.44;7294439;19;152038;-58
2022/04/29 06:06:58;;;;;;;;;;;;;;;22.37;40.91;102933.63;7289062;19;154502;-57
2022/04/29 06:09:26;;;;;;;;;;;;;;;22.41;40.97;102929.13;7289306;19;151480;-58
2022/04/29 06:11:57;;;;;;;;;;;;;;;22.45;41.17;102936.75;7286119;19;152133;-57
2022/04/29 06:14:27;;;;;;;;;;;;;;;22.50;41.02;102938.75;7283638;19;153737;-58
2022/04/29 06:16:54;;;;;;;;;;;;;;;22.54;41.05;102935.13;7285636;19;151675;-57
2022/04/29 06:19:21;;;;;;;;;;;;;;;22.62;41.01;102930.94;7288096;19;152693;-57
2022/04/29 06:21:47;;;;;;;;;;;;;;;22.63;40.48;102939.09;7287348;19;153274;-59
2022/04/29 06:24:14;;;;;;;;;;;;;;;22.66;40.43;102936.88;7285888;19;151782;-59
2022/04/29 06:26:41;;;;;;;;;;;;;;;22.68;40.33;102934.63;7294593;19;153247;-57
2022/04/29 06:29:09;;;;;;;;;;;;;;;22.69;40.10;102925.91;7285116;19;151724;-56
2022/04/29 06:31:36;;;;;;;;;;;;;;;22.69;39.69;102925.03;7285837;19;153604;-56
2022/04/29 06:34:03;;;;;;;;;;;;;;;22.70;39.53;102921.16;7284074;19;155313;-57
2022/04/29 06:36:30;;;;;;;;;;;;;;;22.69;39.76;102920.25;7287023;19;152262;-56
2022/04/29 06:38:56;;;;;;;;;;;;;;;22.43;37.35;102916.50;7286779;19;155038;-59
2022/04/29 06:41:23;;;;;;;;;;;;;;;22.15;36.52;102922.50;7285888;19;154048;-59
2022/04/29 06:43:50;;;;;;;;;;;;;;;22.23;36.85;102918.31;7287153;19;151916;-59
2022/04/29 06:46:17;;;;;;;;;;;;;;;22.27;36.33;102927.91;7285504;19;151747;-56
2022/04/29 06:48:45;;;;;;;;;;;;;;;22.29;36.63;102928.50;7292935;19;151964;-64
2022/04/29 06:51:12;;;;;;;;;;;;;;;22.26;36.90;102932.69;7287425;19;153342;-57
2022/04/29 06:53:41;;;;;;;;;;;;;;;22.25;36.91;102942.28;7282787;19;154108;-56
2022/04/29 06:56:08;;;;;;;;;;;;;;;22.23;37.14;102938.03;7287386;19;151832;-59
2022/04/29 06:58:36;;;;;;;;;;;;;;;22.21;36.75;102934.66;7285808;19;153713;-58
2022/04/29 07:01:03;;;;;;;;;;;;;;;22.18;36.92;102938.84;7284396;19;153702;-57
2022/04/29 07:03:30;;;;;;;;;;;;;;;22.15;36.83;102950.66;7285978;19;152271;-58
2022/04/29 07:05:59;;;;;;;;;;;;;;;22.14;36.70;102951.78;7287436;19;153206;-58
2022/04/29 07:08:26;;;;;;;;;;;;;;;22.11;36.97;102947.53;7292210;19;153616;-58
2022/04/29 07:10:52;;;;;;;;;;;;;;;22.10;36.80;102953.44;7287844;19;153370;-57
2022/04/29 07:13:19;;;;;;;;;;;;;;;22.08;37.09;102955.66;7283782;19;153152;-60
2022/04/29 07:15:48;;;;;;;;;;;;;;;22.08;37.17;102964.09;7284352;19;151881;-58
2022/04/29 07:18:16;;;;;;;;;;;;;;;22.06;36.91;102963.53;7283065;19;153675;-57
2022/04/29 07:20:43;;;;;;;;;;;;;;;22.03;37.12;102961.28;7286004;19;152722;-57
2022/04/29 07:23:10;;;;;;;;;;;;;;;21.98;36.88;102953.63;7258216;19;154943;-56
2022/04/29 07:25:37;;;;;;;;;;;;;;;21.92;37.07;102965.09;7284856;19;152522;-56
2022/04/29 07:28:04;;;;;;;;;;;;;;;21.95;36.96;102956.97;7264127;19;154139;-58
2022/04/29 07:30:31;;;;;;;;;;;;;;;21.99;37.02;102960.09;7291024;19;151958;-58
2022/04/29 07:32:58;;;;;;;;;;;;;;;22.05;37.56;102956.22;7282109;19;154086;-57
2022/04/29 07:43:40;;;;;;;;;;;;;;;21.93;38.06;102961.19;7283740;19;152012;-59
2022/04/29 07:46:10;;;;;;;;;;;;;;;21.91;38.10;102955.78;7283214;19;152676;-56
2022/04/29 07:48:38;;;;;;;;;;;;;;;21.88;37.95;102961.97;7279576;19;153896;-58
2022/04/29 07:51:06;;;;;;;;;;;;;;;21.87;38.16;102957.44;7280230;19;151954;-56
2022/04/29 07:53:34;;;;;;;;;;;;;;;21.86;38.13;102949.25;7286558;19;153681;-55
2022/04/29 07:56:01;;;;;;;;;;;;;;;21.84;37.88;102952.38;7284460;19;151928;-59
2022/04/29 07:58:28;;;;;;;;;;;;;;;21.83;37.68;102956.28;7282736;19;153962;-59
2022/04/29 08:00:55;;;;;;;;;;;;;;;21.81;37.86;102941.63;7282280;19;153972;-56
2022/04/29 08:03:33;;;;;;;;;;;;;;;21.80;38.12;102950.34;7283574;19;151937;-58
2022/04/29 08:06:00;;;;;;;;;;;;;;;21.79;37.84;102960.75;7283570;19;153488;-58
2022/04/29 08:08:27;;;;;;;;;;;;;;;21.78;38.11;102961.03;7279903;19;153211;-57
2022/04/29 08:10:54;;;;;;;;;;;;;;;21.74;37.79;102966.34;7284537;19;151785;-56
2022/04/29 08:13:20;;;;;;;;;;;;;;;21.73;38.09;102962.66;7281752;19;152536;-57
2022/04/29 08:15:49;;;;;;;;;;;;;;;21.71;38.00;102962.06;7288264;19;153218;-57
2022/04/29 08:18:18;;;;;;;;;;;;;;;21.69;38.18;102971.91;7267633;19;153128;-55
2022/04/29 08:20:44;;;;;;;;;;;;;;;21.69;37.81;102971.91;7281005;19;155527;-58
2022/04/29 08:23:11;;;;;;;;;;;;;;;21.66;37.95;102967.69;7281648;19;151661;-57
2022/04/29 08:25:38;;;;;;;;;;;;;;;21.64;38.18;102969.06;7283328;19;152139;-56
2022/04/29 08:28:05;;;;;;;;;;;;;;;21.64;37.77;102964.28;7282787;19;154533;-56
2022/04/29 08:30:32;;;;;;;;;;;;;;;21.62;38.16;102952.44;7283224;19;151521;-57
2022/04/29 08:32:59;;;;;;;;;;;;;;;21.60;37.91;102949.06;7282009;19;152620;-57
2022/04/29 08:35:27;;;;;;;;;;;;;;;21.56;37.82;102956.34;7282272;19;153575;-57
2022/04/29 08:37:54;;;;;;;;;;;;;;;21.55;37.94;102954.63;7290883;19;151524;-56
2022/04/29 08:40:21;;;;;;;;;;;;;;;21.51;37.87;102958.25;7282721;19;153331;-55
2022/04/29 08:42:48;;;;;;;;;;;;;;;21.51;37.96;102964.72;7283320;19;151683;-56
2022/04/29 08:45:15;;;;;;;;;;;;;;;21.49;37.98;102963.25;7284031;19;154276;-56
2022/04/29 08:47:44;;;;;;;;;;;;;;;21.47;37.93;102965.50;7279529;19;153998;-55
2022/04/29 08:50:17;;;;;;;;;;;;;;;21.43;38.44;102962.38;7284852;19;151967;-55
2022/04/29 08:52:44;;;;;;;;;;;;;;;21.42;37.87;102973.91;7280931;19;153461;-56
2022/04/29 09:00:44;;;;;;;;;;;;;;;21.37;38.36;102977.50;7282311;19;153335;-57
2022/04/29 09:03:12;;;;;;;;;;;;;;;21.35;38.23;102978.91;7282914;19;152236;-58
2022/04/29 09:05:39;;;;;;;;;;;;;;;21.32;38.20;102983.06;7281727;19;152593;-56
2022/04/29 09:08:06;;;;;;;;;;;;;;;21.29;38.38;102989.22;7281522;19;154857;-58
2022/04/29 09:10:34;;;;;;;;;;;;;;;21.28;38.20;102985.56;7283543;19;151887;-56
2022/04/29 09:13:11;;;;;;;;;;;;;;;21.27;38.44;102983.84;7280485;19;152350;-56
2022/04/29 09:15:45;;;;;;;;;;;;;;;21.23;37.98;102979.88;7277953;19;153234;-56
2022/04/29 09:18:12;;;;;;;;;;;;;;;21.22;38.03;102991.38;7281516;19;151781;-55
2022/04/29 09:20:39;;;;;;;;;;;;;;;21.20;38.11;102986.03;7289999;19;153380;-57
2022/04/29 09:23:08;;;;;;;;;;;;;;;21.19;38.47;102989.09;7280625;19;151611;-56
2022/04/29 09:25:36;;;;;;;;;;;;;;;21.17;38.02;102985.69;7281480;19;152698;-58
2022/04/29 09:28:04;;;;;;;;;;;;;;;21.14;38.08;102997.47;7280475;19;154139;-56
2022/04/29 09:30:32;;;;;;;;;;;;;;;21.14;38.06;103003.09;7282210;19;151988;-54
2022/04/29 09:32:58;;;;;;;;;;;;;;;21.12;38.02;103008.13;7280407;19;152621;-56
2022/04/29 09:35:35;;;;;;;;;;;;;;;21.10;38.45;102999.09;7281113;19;153720;-59
2022/04/29 09:40:52;;;;;;;;;;;;;;;21.07;38.00;103003.28;7282186;19;153462;-56
2022/04/29 09:43:38;;;;;;;;;;;;;;;21.05;38.28;103001.81;7288387;19;153392;-55
2022/04/29 09:46:11;;;;;;;;;;;;;;;21.04;38.33;103000.97;7280472;19;152676;-58
2022/04/29 09:48:54;;;;;;;;;;;;;;;21.00;38.46;102999.81;7281535;19;152995;-57
2022/04/29 09:51:57;;;;;;;;;;;;;;;21.00;38.21;103007.38;7279532;19;151972;-56
2022/04/29 09:54:28;;;;;;;;;;;;;;;20.98;38.13;103004.00;7275535;19;154381;-56
2022/04/29 09:57:09;;;;;;;;;;;;;;;20.96;38.34;103000.59;7279670;19;153217;-56
2022/04/29 09:59:46;;;;;;;;;;;;;;;20.95;38.00;103007.31;7281659;19;151986;-58
2022/04/29 10:02:14;;;;;;;;;;;;;;;20.89;38.49;102998.00;7281361;19;152671;-57
2022/04/29 10:04:43;;;;;;;;;;;;;;;20.90;38.44;103002.47;7281040;19;153982;-58
2022/04/29 10:07:12;;;;;;;;;;;;;;;20.88;38.19;103001.91;7288203;19;151625;-55
2022/04/29 10:09:40;;;;;;;;;;;;;;;20.86;38.20;102998.50;7280318;19;153134;-57
2022/04/29 10:12:13;;;;;;;;;;;;;;;20.82;38.01;102998.16;7278023;19;151777;-56
2022/04/29 10:14:40;;;;;;;;;;;;;;;20.83;38.05;103007.44;7279243;19;153350;-58
2022/04/29 10:23:01;;;;;;;;;;;;;;;20.75;38.24;102996.66;7280333;19;152569;-56
2022/04/29 10:25:28;;;;;;;;;;;;;;;20.72;38.41;102999.97;7280127;19;153529;-58
2022/04/29 10:27:55;;;;;;;;;;;;;;;20.73;38.04;102996.06;7280779;19;151746;-57
2022/04/29 10:30:26;;;;;;;;;;;;;;;20.72;38.51;102998.03;7285201;19;153205;-56
2022/04/29 10:33:04;;;;;;;;;;;;;;;20.72;37.86;102988.75;7280374;19;151913;-55
2022/04/29 10:35:43;;;;;;;;;;;;;;;20.71;38.03;102990.72;7285321;19;153619;-55
2022/04/29 10:38:13;;;;;;;;;;;;;;;20.70;38.32;102985.38;7283146;19;153334;-55
2022/04/29 10:40:40;;;;;;;;;;;;;;;20.68;38.49;102987.56;7287884;19;151636;-55
2022/04/29 10:43:08;;;;;;;;;;;;;;;20.68;38.20;102987.56;7285027;19;156129;-56
2022/04/29 10:45:36;;;;;;;;;;;;;;;20.66;38.49;102985.03;7284148;19;154319;-58
2022/04/29 10:48:22;;;;;;;;;;;;;;;20.66;38.24;102989.81;7286618;19;151703;-57
2022/04/29 10:50:48;;;;;;;;;;;;;;;20.64;38.14;102995.66;7286193;19;153048;-56
2022/04/29 10:53:15;;;;;;;;;;;;;;;20.64;37.99;102992.00;7292438;19;153999;-58
2022/04/29 10:55:42;;;;;;;;;;;;;;;20.58;38.11;102996.69;7285140;19;153386;-55
2022/04/29 10:58:18;;;;;;;;;;;;;;;20.59;38.53;102989.13;7285472;19;153595;-58
2022/04/29 11:01:04;;;;;;;;;;;;;;;20.60;38.52;102980.44;7284388;19;151667;-55
2022/04/29 11:03:36;;;;;;;;;;;;;;;20.57;38.25;102980.97;7286857;19;152868;-56
2022/04/29 11:06:07;;;;;;;;;;;;;;;20.57;38.21;102982.94;7284745;19;153152;-56
2022/04/29 11:08:35;;;;;;;;;;;;;;;20.54;38.14;102983.44;7286409;19;151908;-57
2022/04/29 11:11:02;;;;;;;;;;;;;;;20.54;38.05;102983.44;7285722;19;155216;-56
2022/04/29 11:13:30;;;;;;;;;;;;;;;20.52;38.51;102983.72;7291968;19;153987;-56
2022/04/29 11:16:07;;;;;;;;;;;;;;;20.50;38.35;102985.91;7283778;19;153362;-54
2022/04/29 11:18:34;;;;;;;;;;;;;;;20.50;38.06;102974.69;7284341;19;154244;-58
2022/04/29 11:24:40;;;;;;;;;;;;;;;20.49;38.10;102978.59;7285611;19;151860;-57
2022/04/29 11:26:46;;;;;;;;;;;;;;;20.43;38.55;102976.84;7283797;19;154442;-55
2022/04/29 11:29:13;;;;;;;;;;;;;;;20.47;38.03;102968.75;7282997;19;151694;-57
2022/04/29 11:31:41;;;;;;;;;;;;;;;20.46;38.28;102972.66;7283196;19;151835;-58
2022/04/29 11:34:08;;;;;;;;;;;;;;;20.43;38.47;102968.41;7282416;19;154161;-58
2022/04/29 11:36:35;;;;;;;;;;;;;;;20.43;38.04;102965.59;7293763;19;151563;-58
2022/04/29 11:39:07;;;;;;;;;;;;;;;20.43;38.37;102962.78;7281817;19;153155;-58
2022/04/29 11:41:34;;;;;;;;;;;;;;;20.41;38.04;102953.78;7285576;19;152002;-57
2022/04/29 11:44:02;;;;;;;;;;;;;;;20.41;37.99;102959.38;7282980;19;153354;-58
2022/04/29 11:46:29;;;;;;;;;;;;;;;20.39;38.05;102958.81;7283158;19;154279;-56
2022/04/29 11:49:00;;;;;;;;;;;;;;;20.37;38.12;102959.06;7285102;19;151471;-56
2022/04/29 11:51:28;;;;;;;;;;;;;;;20.37;38.37;102961.00;7284934;19;153917;-58
2022/04/29 11:53:57;;;;;;;;;;;;;;;20.35;38.36;102949.22;7281407;19;154153;-56
2022/04/29 11:56:31;;;;;;;;;;;;;;;20.35;38.14;102947.22;7285207;19;151762;-55
2022/04/29 11:58:58;;;;;;;;;;;;;;;20.32;38.06;102933.72;7291183;19;152006;-58
2022/04/29 12:01:28;;;;;;;;;;;;;;;20.33;38.05;102945.78;7283433;19;151890;-58
2022/04/29 12:03:55;;;;;;;;;;;;;;;20.32;38.01;102942.13;7284149;19;153672;-56
2022/04/29 12:06:23;;;;;;;;;;;;;;;20.32;38.03;102946.91;7283904;19;153447;-58
2022/04/29 12:08:50;;;;;;;;;;;;;;;20.31;38.19;102950.81;7284881;19;151913;-58
2022/04/29 12:11:24;;;;;;;;;;;;;;;20.28;38.06;102942.88;7285131;19;151910;-56
2022/04/29 12:13:51;;;;;;;;;;;;;;;20.27;38.05;102942.03;7281898;19;152314;-58
2022/04/29 12:16:18;;;;;;;;;;;;;;;20.28;38.17;102940.94;7285401;19;151753;-55
2022/04/29 12:18:46;;;;;;;;;;;;;;;20.27;38.24;102932.75;7285389;19;152829;-57
2022/04/29 12:21:19;;;;;;;;;;;;;;;20.26;38.06;102945.13;7289323;19;153184;-55
2022/04/29 12:23:46;;;;;;;;;;;;;;;20.24;38.43;102938.88;7283160;19;152670;-58
2022/04/29 12:26:13;;;;;;;;;;;;;;;20.23;38.36;102938.03;7283771;19;153166;-59
2022/04/29 12:28:40;;;;;;;;;;;;;;;20.20;38.39;102938.56;7284363;19;151879;-57
2022/04/29 12:36:54;;;;;;;;;;;;;;;20.21;38.01;102940.28;7284696;19;152058;-58
2022/04/29 12:39:24;;;;;;;;;;;;;;;20.21;38.39;102928.19;7283983;19;152993;-58
2022/04/29 12:42:00;;;;;;;;;;;;;;;20.20;38.28;102934.91;7282925;19;152227;-56
2022/04/29 12:47:23;;;;;;;;;;;;;;;20.17;38.41;102936.25;7283147;19;155487;-57
2022/04/29 12:49:51;;;;;;;;;;;;;;;20.17;38.17;102927.84;7282962;19;152050;-59
2022/04/29 12:52:17;;;;;;;;;;;;;;;20.15;38.06;102927.25;7284114;19;152166;-58
2022/04/29 12:54:44;;;;;;;;;;;;;;;20.16;38.19;102928.97;7282113;19;154258;-57
2022/04/29 12:57:11;;;;;;;;;;;;;;;20.15;38.18;102920.78;7278684;19;151629;-56
2022/04/29 12:59:38;;;;;;;;;;;;;;;20.15;38.06;102929.22;7282217;19;152943;-57
2022/04/29 13:02:06;;;;;;;;;;;;;;;20.12;38.01;102919.38;7282083;19;153325;-57
2022/04/29 13:04:33;;;;;;;;;;;;;;;20.12;38.17;102918.50;7284054;19;151659;-55
2022/04/29 13:07:00;;;;;;;;;;;;;;;20.10;38.16;102924.38;7289946;19;153567;-58
2022/04/29 13:09:29;;;;;;;;;;;;;;;20.12;37.96;102916.56;7282464;19;152483;-58
2022/04/29 13:12:02;;;;;;;;;;;;;;;20.12;38.35;102922.16;7283774;19;152744;-58
2022/04/29 13:14:29;;;;;;;;;;;;;;;20.09;38.06;102919.84;7281327;19;155194;-56
2022/04/29 13:16:56;;;;;;;;;;;;;;;20.09;38.06;102917.06;7282590;19;151802;-57